createdAt,value
2022-08-25T00:02:00.785Z,52.66
2022-08-25T00:04:29.954Z,52.80
2022-08-25T00:07:02.134Z,52.70
2022-08-25T00:09:31.529Z,52.57
2022-08-25T00:11:58.985Z,52.74
2022-08-25T00:14:33.536Z,52.90
2022-08-25T00:17:00.995Z,52.66
2022-08-25T00:19:32.134Z,52.37
2022-08-25T00:22:00.876Z,52.47
2022-08-25T00:24:28.509Z,52.72
2022-08-25T00:26:57.791Z,52.68
2022-08-25T00:29:26.344Z,52.64
2022-08-25T00:31:53.888Z,52.65
2022-08-25T00:34:24.385Z,52.63
2022-08-25T00:36:51.901Z,52.40
2022-08-25T00:39:21.370Z,52.90
2022-08-25T00:41:50.835Z,52.36
2022-08-25T00:44:18.846Z,52.32
2022-08-25T00:46:52.538Z,52.51
2022-08-25T00:49:33.804Z,52.50
2022-08-25T00:52:09.150Z,52.74
2022-08-25T00:54:41.002Z,52.28
2022-08-25T00:57:08.973Z,52.68
2022-08-25T00:59:35.989Z,52.57
2022-08-25T01:02:04.436Z,52.40
2022-08-25T01:04:31.509Z,52.25
2022-08-25T01:07:00.629Z,52.30
2022-08-25T01:09:29.421Z,52.25
2022-08-25T01:11:56.677Z,52.31
2022-08-25T01:14:25.244Z,52.30
2022-08-25T01:16:53.867Z,52.25
2022-08-25T01:19:21.648Z,52.04
2022-08-25T01:21:50.682Z,52.29
2022-08-25T01:24:31.361Z,51.88
2022-08-25T01:26:58.204Z,52.17
2022-08-25T01:29:27.785Z,52.19
2022-08-25T01:32:01.364Z,52.12
2022-08-25T01:34:31.526Z,52.16
2022-08-25T01:36:59.185Z,52.15
2022-08-25T01:39:28.420Z,52.05
2022-08-25T01:42:09.720Z,51.64
2022-08-25T01:44:38.816Z,51.92
2022-08-25T01:47:07.167Z,51.63
2022-08-25T01:49:34.435Z,52.00
2022-08-25T01:52:07.305Z,51.95
2022-08-25T01:54:33.931Z,51.70
2022-08-25T01:57:00.492Z,51.90
2022-08-25T01:59:27.497Z,51.83
2022-08-25T02:01:59.763Z,51.79
2022-08-25T02:04:32.091Z,51.76
2022-08-25T02:07:01.454Z,51.98
2022-08-25T02:09:28.166Z,51.92
2022-08-25T02:11:54.988Z,51.92
2022-08-25T02:14:21.837Z,51.92
2022-08-25T02:16:51.674Z,51.53
2022-08-25T02:19:20.218Z,51.82
2022-08-25T02:21:47.200Z,51.98
2022-08-25T02:24:14.020Z,51.98
2022-08-25T02:26:41.296Z,51.96
2022-08-25T02:29:08.899Z,51.96
2022-08-25T02:31:35.782Z,51.87
2022-08-25T02:34:03.489Z,51.64
2022-08-25T02:36:32.101Z,51.92
2022-08-25T02:38:58.841Z,51.51
2022-08-25T02:41:31.019Z,51.54
2022-08-25T02:44:02.916Z,51.71
2022-08-25T02:46:30.985Z,51.54
2022-08-25T02:48:57.995Z,51.98
2022-08-25T02:51:26.107Z,51.74
2022-08-25T02:53:53.103Z,51.83
2022-08-25T02:56:20.720Z,51.86
2022-08-25T02:58:48.069Z,51.83
2022-08-25T03:01:16.130Z,51.69
2022-08-25T03:03:44.901Z,51.35
2022-08-25T03:06:18.180Z,51.58
2022-08-25T03:08:45.372Z,51.25
2022-08-25T03:11:12.759Z,51.72
2022-08-25T03:13:39.850Z,51.43
2022-08-25T03:16:11.057Z,51.68
2022-08-25T03:18:41.595Z,51.37
2022-08-25T03:21:11.364Z,51.58
2022-08-25T03:23:38.483Z,51.54
2022-08-25T03:26:24.001Z,51.38
2022-08-25T03:28:51.235Z,51.20
2022-08-25T03:31:18.435Z,51.26
2022-08-25T03:33:45.132Z,51.62
2022-08-25T03:36:12.354Z,51.69
2022-08-25T03:38:39.828Z,51.32
2022-08-25T03:41:29.225Z,51.42
2022-08-25T03:43:56.556Z,51.59
2022-08-25T03:46:30.312Z,51.77
2022-08-25T03:48:57.683Z,51.57
2022-08-25T03:51:28.829Z,51.89
2022-08-25T03:53:56.578Z,51.64
2022-08-25T03:56:23.187Z,51.58
2022-08-25T03:58:51.448Z,51.64
2022-08-25T04:01:18.316Z,52.04
2022-08-25T04:03:45.934Z,51.70
2022-08-25T04:06:13.807Z,51.61
2022-08-25T04:08:40.463Z,52.00
2022-08-25T04:11:13.919Z,52.08
2022-08-25T04:13:42.376Z,51.76
2022-08-25T04:16:14.546Z,51.97
2022-08-25T04:18:42.372Z,51.92
2022-08-25T04:21:09.804Z,51.98
2022-08-25T04:23:37.617Z,51.57
2022-08-25T04:26:16.618Z,51.70
2022-08-25T04:28:43.362Z,51.90
2022-08-25T04:31:11.762Z,51.87
2022-08-25T04:33:38.961Z,51.90
2022-08-25T04:36:11.442Z,51.97
2022-08-25T04:38:39.925Z,51.67
2022-08-25T04:41:08.315Z,51.94
2022-08-25T04:43:36.316Z,51.60
2022-08-25T04:46:08.705Z,51.86
2022-08-25T04:48:35.475Z,51.81
2022-08-25T04:51:06.853Z,51.65
2022-08-25T04:53:34.029Z,51.91
2022-08-25T04:56:03.660Z,51.58
2022-08-25T04:58:31.058Z,51.48
2022-08-25T05:01:05.395Z,51.89
2022-08-25T05:03:32.353Z,51.62
2022-08-25T05:06:02.319Z,51.94
2022-08-25T05:08:29.508Z,51.86
2022-08-25T05:10:56.745Z,51.95
2022-08-25T05:13:25.041Z,51.89
2022-08-25T05:15:57.596Z,51.93
2022-08-25T05:18:29.000Z,51.74
2022-08-25T05:20:57.189Z,52.10
2022-08-25T05:23:24.897Z,51.92
2022-08-25T05:25:52.990Z,52.02
2022-08-25T05:28:21.134Z,51.96
2022-08-25T05:30:51.359Z,51.68
2022-08-25T05:33:18.447Z,52.11
2022-08-25T05:35:45.099Z,51.78
2022-08-25T05:38:15.080Z,52.18
2022-08-25T05:40:42.039Z,51.68
2022-08-25T05:43:08.644Z,51.84
2022-08-25T05:45:36.061Z,52.14
2022-08-25T05:48:03.002Z,51.94
2022-08-25T05:50:29.655Z,52.23
2022-08-25T05:52:56.225Z,51.91
2022-08-25T05:55:22.886Z,52.11
2022-08-25T05:57:49.865Z,51.92
2022-08-25T06:00:17.487Z,52.07
2022-08-25T06:02:46.232Z,52.01
2022-08-25T06:05:23.041Z,52.12
2022-08-25T06:07:52.111Z,52.05
2022-08-25T06:10:20.186Z,51.97
2022-08-25T06:12:47.460Z,52.16
2022-08-25T06:15:16.935Z,52.12
2022-08-25T06:17:44.014Z,52.30
2022-08-25T06:20:13.996Z,52.49
2022-08-25T06:22:41.966Z,52.19
2022-08-25T06:25:10.684Z,52.24
2022-08-25T06:27:37.748Z,52.43
2022-08-25T06:30:08.002Z,52.32
2022-08-25T06:32:36.694Z,52.37
2022-08-25T06:35:05.944Z,52.16
2022-08-25T06:37:32.859Z,52.52
2022-08-25T06:39:59.421Z,52.44
2022-08-25T06:42:26.323Z,52.43
2022-08-25T06:44:52.896Z,52.22
2022-08-25T06:47:20.154Z,52.19
2022-08-25T06:49:47.416Z,52.25
2022-08-25T06:52:15.281Z,52.41
2022-08-25T06:54:42.208Z,52.03
2022-08-25T06:57:09.176Z,52.53
2022-08-25T06:59:36.264Z,52.47
2022-08-25T07:02:04.238Z,52.45
2022-08-25T07:04:31.887Z,52.15
2022-08-25T07:06:59.393Z,51.96
2022-08-25T07:09:25.915Z,52.06
2022-08-25T07:11:52.585Z,51.94
2022-08-25T07:14:20.077Z,52.26
2022-08-25T07:16:49.632Z,51.93
2022-08-25T07:19:20.831Z,52.26
2022-08-25T07:21:51.328Z,51.86
2022-08-25T07:24:18.422Z,51.99
2022-08-25T07:26:46.732Z,51.90
2022-08-25T07:29:18.659Z,51.91
2022-08-25T07:31:47.402Z,52.01
2022-08-25T07:34:32.879Z,51.91
2022-08-25T07:37:04.423Z,52.18
2022-08-25T07:39:33.797Z,51.83
2022-08-25T07:42:00.792Z,51.85
2022-08-25T07:44:28.720Z,51.98
2022-08-25T07:46:55.677Z,52.15
2022-08-25T07:49:24.023Z,51.88
2022-08-25T07:52:04.599Z,51.89
2022-08-25T07:54:34.465Z,52.14
2022-08-25T07:57:03.576Z,52.21
2022-08-25T07:59:30.913Z,51.94
2022-08-25T08:02:05.630Z,51.98
2022-08-25T08:04:32.158Z,51.77
2022-08-25T08:06:58.735Z,52.21
2022-08-25T08:09:25.369Z,52.03
2022-08-25T08:11:54.343Z,52.13
2022-08-25T08:14:21.112Z,52.03
2022-08-25T08:16:47.804Z,52.01
2022-08-25T08:19:14.563Z,52.13
2022-08-25T08:21:41.848Z,52.11
2022-08-25T08:24:24.913Z,52.00
2022-08-25T08:26:58.987Z,52.29
2022-08-25T08:29:26.343Z,51.92
2022-08-25T08:31:53.359Z,51.79
2022-08-25T08:34:20.112Z,52.09
2022-08-25T08:36:52.493Z,52.19
2022-08-25T08:39:19.079Z,52.23
2022-08-25T08:42:22.417Z,52.19
2022-08-25T08:44:59.199Z,52.17
2022-08-25T08:47:56.004Z,52.23
2022-08-25T08:50:33.380Z,52.15
2022-08-25T08:53:11.040Z,52.05
2022-08-25T08:55:48.312Z,52.09
2022-08-25T08:58:42.168Z,51.75
2022-08-25T09:01:15.717Z,51.83
2022-08-25T09:03:58.884Z,52.20
2022-08-25T09:06:37.709Z,51.83
2022-08-25T09:09:06.876Z,52.01
2022-08-25T09:11:42.411Z,51.89
2022-08-25T09:14:54.031Z,52.16
2022-08-25T09:17:39.459Z,52.05
2022-08-25T09:20:18.662Z,51.72
2022-08-25T09:23:02.198Z,51.92
2022-08-25T09:25:54.003Z,51.79
2022-08-25T09:28:32.258Z,51.73
2022-08-25T09:31:16.296Z,52.11
2022-08-25T09:33:43.083Z,52.14
2022-08-25T09:36:09.897Z,51.90
2022-08-25T09:38:37.074Z,52.07
2022-08-25T09:41:05.623Z,51.69
2022-08-25T09:43:36.740Z,51.68
2022-08-25T09:46:03.608Z,51.72
2022-08-25T09:48:56.977Z,52.04
2022-08-25T09:51:42.186Z,51.73
2022-08-25T09:54:15.671Z,51.91
2022-08-25T09:56:57.346Z,52.08
2022-08-25T09:59:34.255Z,51.60
2022-08-25T10:02:05.482Z,51.93
2022-08-25T10:04:36.924Z,51.84
2022-08-25T10:07:08.544Z,51.99
2022-08-25T10:09:41.799Z,51.73
2022-08-25T10:12:24.900Z,51.91
2022-08-25T10:14:54.608Z,51.97
2022-08-25T10:17:30.164Z,51.91
2022-08-25T10:20:11.926Z,52.00
2022-08-25T10:22:41.628Z,51.65
2022-08-25T10:25:11.841Z,51.65
2022-08-25T10:27:53.525Z,52.02
2022-08-25T10:30:28.224Z,51.94
2022-08-25T10:33:10.204Z,51.97
2022-08-25T10:36:50.735Z,52.03
2022-08-25T10:39:40.496Z,52.18
2022-08-25T10:42:19.780Z,52.07
2022-08-25T10:45:21.903Z,51.72
2022-08-25T10:47:57.591Z,51.80
2022-08-25T10:50:38.672Z,52.07
2022-08-25T10:53:12.672Z,51.91
2022-08-25T10:55:43.994Z,51.67
2022-08-25T10:58:44.236Z,51.76
2022-08-25T11:01:45.040Z,52.24
2022-08-25T11:04:53.198Z,52.01
2022-08-25T11:07:31.220Z,52.11
2022-08-25T11:10:03.280Z,52.13
2022-08-25T11:12:32.848Z,51.99
2022-08-25T11:15:07.000Z,51.99
2022-08-25T11:17:42.849Z,52.28
2022-08-25T11:20:26.507Z,52.29
2022-08-25T11:23:16.817Z,51.96
2022-08-25T11:25:47.455Z,52.17
2022-08-25T11:28:23.172Z,52.20
2022-08-25T11:30:53.036Z,52.00
2022-08-25T11:33:20.520Z,52.33
2022-08-25T11:35:55.376Z,52.36
2022-08-25T11:38:45.375Z,52.14
2022-08-25T11:41:17.787Z,51.98
2022-08-25T11:44:02.516Z,52.28
2022-08-25T11:46:42.044Z,52.30
2022-08-25T11:49:43.074Z,52.32
2022-08-25T11:52:32.574Z,51.84
2022-08-25T11:55:22.966Z,52.05
2022-08-25T11:57:53.644Z,52.14
2022-08-25T12:00:42.608Z,52.14
2022-08-25T12:03:37.148Z,51.99
2022-08-25T12:06:59.211Z,52.04
2022-08-25T12:09:25.814Z,52.09
2022-08-25T12:11:58.241Z,52.30
2022-08-25T12:14:24.809Z,52.24
2022-08-25T12:16:54.906Z,52.16
2022-08-25T12:19:26.404Z,52.42
2022-08-25T12:21:59.017Z,52.40
2022-08-25T12:24:48.855Z,52.25
2022-08-25T12:27:53.297Z,51.97
2022-08-25T12:30:22.432Z,52.07
2022-08-25T12:33:07.564Z,52.08
2022-08-25T12:35:57.849Z,52.02
2022-08-25T12:38:50.887Z,52.04
2022-08-25T12:41:24.366Z,52.45
2022-08-25T12:43:54.328Z,52.28
2022-08-25T12:46:25.783Z,52.04
2022-08-25T12:49:32.217Z,52.28
2022-08-25T12:52:05.948Z,52.08
2022-08-25T12:54:38.434Z,52.39
2022-08-25T12:57:17.967Z,52.18
2022-08-25T12:59:56.236Z,52.37
2022-08-25T13:03:09.147Z,52.42
2022-08-25T13:06:04.483Z,52.32
2022-08-25T13:08:54.219Z,52.57
2022-08-25T13:11:49.581Z,52.35
2022-08-25T13:14:26.894Z,52.27
2022-08-25T13:16:57.464Z,52.43
2022-08-25T13:19:26.231Z,52.01
2022-08-25T13:21:54.795Z,52.25
2022-08-25T13:24:26.531Z,52.26
2022-08-25T13:26:57.677Z,52.27
2022-08-25T13:29:26.567Z,52.45
2022-08-25T13:32:14.792Z,52.22
2022-08-25T13:34:43.171Z,52.30
2022-08-25T13:37:32.382Z,52.39
2022-08-25T13:40:25.887Z,52.32
2022-08-25T13:42:57.546Z,52.41
2022-08-25T13:45:28.402Z,52.26
2022-08-25T13:47:56.851Z,52.06
2022-08-25T13:50:27.028Z,52.21
2022-08-25T13:53:01.835Z,51.86
2022-08-25T13:55:53.672Z,52.34
2022-08-25T13:58:38.509Z,52.17
2022-08-25T14:01:47.483Z,52.22
2022-08-25T14:04:39.783Z,51.89
2022-08-25T14:07:20.851Z,51.88
2022-08-25T14:09:49.333Z,52.10
2022-08-25T14:12:38.152Z,52.26
2022-08-25T14:15:16.789Z,52.17
2022-08-25T14:17:59.818Z,52.14
2022-08-25T14:20:29.706Z,52.02
2022-08-25T14:23:10.249Z,52.13
2022-08-25T14:25:37.336Z,51.88
2022-08-25T14:28:13.457Z,52.12
2022-08-25T14:30:45.971Z,52.33
2022-08-25T14:33:14.707Z,52.00
2022-08-25T14:35:45.478Z,52.20
2022-08-25T14:38:14.869Z,51.88
2022-08-25T14:40:41.608Z,51.88
2022-08-25T14:43:09.548Z,52.25
2022-08-25T14:45:39.927Z,52.23
2022-08-25T14:48:17.967Z,52.27
2022-08-25T14:50:45.260Z,52.25
2022-08-25T14:53:12.180Z,52.19
2022-08-25T14:55:41.240Z,52.10
2022-08-25T14:58:08.828Z,52.12
2022-08-25T15:00:44.593Z,51.96
2022-08-25T15:03:17.923Z,52.02
2022-08-25T15:05:44.921Z,52.02
2022-08-25T15:08:33.202Z,52.20
2022-08-25T15:11:00.291Z,52.11
2022-08-25T15:13:27.474Z,52.18
2022-08-25T15:15:55.215Z,52.10
2022-08-25T15:18:25.851Z,51.71
2022-08-25T15:20:52.470Z,52.09
2022-08-25T15:23:20.128Z,51.84
2022-08-25T15:25:48.991Z,51.71
2022-08-25T15:28:22.678Z,52.07
2022-08-25T15:30:50.156Z,52.01
2022-08-25T15:33:17.527Z,52.06
2022-08-25T15:35:45.089Z,51.76
2022-08-25T15:38:12.730Z,52.09
2022-08-25T15:40:39.716Z,52.10
2022-08-25T15:43:07.068Z,51.79
2022-08-25T15:45:36.130Z,51.78
2022-08-25T15:48:04.336Z,51.65
2022-08-25T15:50:33.564Z,51.88
2022-08-25T15:53:00.511Z,51.62
2022-08-25T15:55:27.405Z,51.92
2022-08-25T15:57:54.032Z,51.61
2022-08-25T16:00:21.603Z,51.69
2022-08-25T16:02:48.283Z,51.59
2022-08-25T16:05:16.363Z,51.59
2022-08-25T16:07:45.884Z,51.94
2022-08-25T16:10:13.573Z,52.07
2022-08-25T16:12:42.768Z,51.88
2022-08-25T16:15:10.161Z,51.76
2022-08-25T16:17:40.718Z,51.64
2022-08-25T16:20:13.646Z,51.65
2022-08-25T16:22:40.992Z,51.84
2022-08-25T16:25:08.099Z,51.78
2022-08-25T16:27:38.859Z,52.17
2022-08-25T16:30:17.623Z,51.90
2022-08-25T16:32:45.268Z,51.76
2022-08-25T16:35:13.056Z,51.73
2022-08-25T16:37:40.492Z,52.07
2022-08-25T16:40:13.322Z,52.09
2022-08-25T16:42:41.584Z,52.12
2022-08-25T16:45:09.017Z,52.22
2022-08-25T16:47:38.121Z,51.89
2022-08-25T16:50:08.944Z,51.90
2022-08-25T16:52:58.315Z,51.90
2022-08-25T16:55:27.246Z,51.81
2022-08-25T16:57:54.295Z,51.81
2022-08-25T17:00:24.973Z,52.17
2022-08-25T17:02:59.098Z,51.95
2022-08-25T17:05:27.607Z,51.90
2022-08-25T17:08:12.653Z,52.06
2022-08-25T17:10:41.603Z,51.97
2022-08-25T17:13:09.641Z,52.17
2022-08-25T17:15:41.183Z,51.80
2022-08-25T17:18:08.531Z,52.17
2022-08-25T17:20:38.277Z,51.87
2022-08-25T17:23:11.968Z,51.95
2022-08-25T17:25:42.910Z,51.80
2022-08-25T17:28:12.270Z,51.92
2022-08-25T17:30:41.841Z,51.80
2022-08-25T17:33:08.415Z,51.89
2022-08-25T17:35:43.020Z,52.22
2022-08-25T17:38:10.956Z,51.81
2022-08-25T17:40:38.472Z,52.01
2022-08-25T17:43:06.020Z,52.20
2022-08-25T17:45:35.996Z,51.77
2022-08-25T17:48:02.939Z,51.80
2022-08-25T17:50:29.997Z,52.15
2022-08-25T17:52:56.516Z,52.12
2022-08-25T17:55:24.260Z,52.04
2022-08-25T17:57:51.360Z,51.97
2022-08-25T18:00:20.713Z,51.77
2022-08-25T18:02:48.362Z,52.11
2022-08-25T18:05:16.769Z,52.11
2022-08-25T18:07:44.078Z,51.52
2022-08-25T18:10:11.773Z,52.11
2022-08-25T18:12:39.149Z,52.01
2022-08-25T18:15:07.125Z,52.05
2022-08-25T18:17:35.752Z,52.31
2022-08-25T18:20:06.194Z,52.36
2022-08-25T18:22:33.104Z,52.13
2022-08-25T18:25:02.905Z,52.02
2022-08-25T18:27:29.835Z,52.11
2022-08-25T18:29:57.151Z,52.00
2022-08-25T18:32:25.974Z,52.16
2022-08-25T18:34:53.521Z,52.25
2022-08-25T18:37:39.161Z,52.19
2022-08-25T18:40:27.482Z,52.13
2022-08-25T18:43:01.873Z,52.26
2022-08-25T18:45:33.203Z,52.04
2022-08-25T18:48:00.979Z,52.21
2022-08-25T18:50:32.161Z,52.11
2022-08-25T18:53:00.340Z,52.12
2022-08-25T18:55:27.068Z,51.97
2022-08-25T18:57:55.337Z,52.29
2022-08-25T19:00:24.921Z,52.08
2022-08-25T19:02:54.002Z,51.84
2022-08-25T19:05:24.365Z,52.15
2022-08-25T19:07:52.069Z,51.99
2022-08-25T19:10:20.929Z,51.89
2022-08-25T19:12:50.827Z,51.64
2022-08-25T19:15:18.207Z,51.96
2022-08-25T19:17:53.116Z,52.06
2022-08-25T19:20:20.947Z,51.80
2022-08-25T19:22:47.803Z,51.75
2022-08-25T19:25:15.799Z,51.76
2022-08-25T19:27:43.443Z,52.11
2022-08-25T19:30:11.692Z,51.67
2022-08-25T19:32:40.790Z,51.53
2022-08-25T19:35:12.976Z,51.54
2022-08-25T19:37:39.905Z,51.55
2022-08-25T19:40:09.333Z,51.44
2022-08-25T19:42:38.540Z,51.23
2022-08-25T19:45:08.029Z,51.28
2022-08-25T19:47:35.212Z,51.28
2022-08-25T19:50:01.826Z,51.07
2022-08-25T19:52:28.736Z,50.99
2022-08-25T19:54:55.609Z,50.74
2022-08-25T19:57:27.876Z,51.03
2022-08-25T20:00:20.091Z,50.97
2022-08-25T20:02:47.447Z,50.87
2022-08-25T20:05:16.851Z,50.71
2022-08-25T20:07:52.924Z,50.73
2022-08-25T20:10:20.508Z,50.99
2022-08-25T20:12:47.197Z,50.62
2022-08-25T20:15:16.521Z,50.38
2022-08-25T20:17:44.048Z,50.78
2022-08-25T20:20:15.076Z,50.30
2022-08-25T20:22:41.983Z,50.35
2022-08-25T20:25:13.992Z,50.39
2022-08-25T20:27:45.013Z,50.32
2022-08-25T20:30:19.184Z,49.75
2022-08-25T20:32:46.296Z,49.92
2022-08-25T20:35:14.379Z,50.09
2022-08-25T20:37:43.818Z,49.64
2022-08-25T20:40:13.376Z,49.68
2022-08-25T20:42:40.642Z,49.83
2022-08-25T20:45:10.465Z,49.48
2022-08-25T20:47:37.146Z,49.58
2022-08-25T20:50:06.875Z,49.33
2022-08-25T20:52:34.586Z,49.65
2022-08-25T20:55:01.710Z,49.44
2022-08-25T20:57:28.664Z,49.37
2022-08-25T20:59:56.847Z,49.28
2022-08-25T21:02:24.996Z,49.67
2022-08-25T21:04:52.835Z,49.53
2022-08-25T21:07:21.475Z,49.49
2022-08-25T21:09:51.439Z,49.67
2022-08-25T21:12:18.261Z,49.36
2022-08-25T21:14:44.931Z,49.36
2022-08-25T21:17:12.968Z,49.38
2022-08-25T21:19:40.300Z,49.05
2022-08-25T21:22:08.898Z,49.32
2022-08-25T21:24:37.781Z,48.92
2022-08-25T21:27:04.623Z,48.90
2022-08-25T21:29:32.759Z,49.08
2022-08-25T21:31:59.779Z,48.96
2022-08-25T21:34:28.815Z,48.73
2022-08-25T21:36:57.725Z,48.97
2022-08-25T21:39:31.995Z,48.67
2022-08-25T21:42:00.484Z,48.88
2022-08-25T21:44:28.646Z,48.75
2022-08-25T21:46:56.409Z,48.68
2022-08-25T21:49:25.527Z,48.82
2022-08-25T21:52:00.278Z,48.64
2022-08-25T21:54:28.806Z,48.67
2022-08-25T21:56:59.755Z,48.39
2022-08-25T21:59:35.495Z,48.86
2022-08-25T22:02:10.355Z,48.75
2022-08-25T22:04:39.343Z,48.66
2022-08-25T22:07:08.120Z,48.81
2022-08-25T22:09:35.621Z,48.44
2022-08-25T22:12:02.880Z,48.51
2022-08-25T22:14:29.596Z,48.25
2022-08-25T22:16:56.358Z,48.56
2022-08-25T22:19:24.647Z,48.15
2022-08-25T22:21:52.821Z,48.62
2022-08-25T22:24:20.649Z,48.39
2022-08-25T22:26:48.594Z,48.31
2022-08-25T22:29:24.936Z,48.32
2022-08-25T22:31:53.894Z,48.26
2022-08-25T22:34:31.609Z,48.27
2022-08-25T22:37:00.066Z,48.30
2022-08-25T22:39:27.606Z,48.35
2022-08-25T22:41:54.243Z,47.98
2022-08-25T22:44:22.188Z,48.30
2022-08-25T22:46:48.791Z,48.13
2022-08-25T22:49:15.312Z,48.00
2022-08-25T22:51:42.249Z,48.13
2022-08-25T22:54:09.540Z,48.09
2022-08-25T22:56:38.840Z,47.98
2022-08-25T22:59:08.433Z,47.94
2022-08-25T23:01:36.269Z,48.06
2022-08-25T23:04:04.942Z,48.12
2022-08-25T23:06:34.318Z,47.99
2022-08-25T23:09:02.028Z,47.66
2022-08-25T23:11:29.041Z,47.58
2022-08-25T23:13:57.585Z,47.65
2022-08-25T23:16:25.203Z,47.43
2022-08-25T23:18:52.784Z,47.39
2022-08-25T23:21:41.362Z,47.33
2022-08-25T23:24:13.503Z,47.54
2022-08-25T23:26:42.667Z,47.56
2022-08-25T23:29:18.121Z,47.52
2022-08-25T23:31:47.050Z,47.66
2022-08-25T23:34:15.351Z,47.49
2022-08-25T23:36:43.080Z,47.58
2022-08-25T23:39:11.310Z,47.62
2022-08-25T23:41:38.300Z,47.43
2022-08-25T23:44:11.436Z,47.23
2022-08-25T23:46:38.792Z,47.22
2022-08-25T23:49:08.423Z,47.05
2022-08-25T23:51:38.023Z,47.46
2022-08-25T23:54:09.197Z,47.35
2022-08-25T23:56:44.710Z,47.48
2022-08-25T23:59:18.796Z,47.22
